sensor_id;sensor_type;location;lat;lon;timestamp;P1;durP1;ratioP1;P2;durP2;ratioP2
41683;SDS011;27369;52.030;4.586;2022-09-25T00:00:25;7.45;;;3.22;;
41683;SDS011;27369;52.030;4.586;2022-09-25T00:02:51;6.43;;;3.20;;
41683;SDS011;27369;52.030;4.586;2022-09-25T00:05:16;14.48;;;4.93;;
41683;SDS011;27369;52.030;4.586;2022-09-25T00:07:42;7.75;;;3.38;;
41683;SDS011;27369;52.030;4.586;2022-09-25T00:10:07;11.40;;;3.80;;
41683;SDS011;27369;52.030;4.586;2022-09-25T00:12:33;7.65;;;4.18;;
41683;SDS011;27369;52.030;4.586;2022-09-25T00:14:58;13.52;;;3.65;;
41683;SDS011;27369;52.030;4.586;2022-09-25T00:17:24;8.73;;;3.13;;
41683;SDS011;27369;52.030;4.586;2022-09-25T00:19:50;12.90;;;3.78;;
41683;SDS011;27369;52.030;4.586;2022-09-25T00:22:17;12.15;;;3.80;;
41683;SDS011;27369;52.030;4.586;2022-09-25T00:24:44;10.73;;;4.05;;
41683;SDS011;27369;52.030;4.586;2022-09-25T00:27:10;8.65;;;3.90;;
41683;SDS011;27369;52.030;4.586;2022-09-25T00:29:36;9.32;;;3.50;;
41683;SDS011;27369;52.030;4.586;2022-09-25T00:32:03;13.60;;;3.20;;
41683;SDS011;27369;52.030;4.586;2022-09-25T00:34:30;9.40;;;3.30;;
41683;SDS011;27369;52.030;4.586;2022-09-25T00:36:55;5.72;;;3.05;;
41683;SDS011;27369;52.030;4.586;2022-09-25T00:39:21;7.65;;;2.85;;
41683;SDS011;27369;52.030;4.586;2022-09-25T00:41:46;5.50;;;3.17;;
41683;SDS011;27369;52.030;4.586;2022-09-25T00:47:21;8.57;;;3.22;;
41683;SDS011;27369;52.030;4.586;2022-09-25T00:50:22;7.72;;;3.20;;
41683;SDS011;27369;52.030;4.586;2022-09-25T00:53:22;9.40;;;3.15;;
41683;SDS011;27369;52.030;4.586;2022-09-25T00:55:51;10.15;;;3.03;;
41683;SDS011;27369;52.030;4.586;2022-09-25T00:58:18;7.20;;;3.20;;
41683;SDS011;27369;52.030;4.586;2022-09-25T01:00:47;8.18;;;3.47;;
41683;SDS011;27369;52.030;4.586;2022-09-25T01:03:15;6.63;;;3.75;;
41683;SDS011;27369;52.030;4.586;2022-09-25T01:05:42;6.30;;;3.65;;
41683;SDS011;27369;52.030;4.586;2022-09-25T01:08:10;9.75;;;3.38;;
41683;SDS011;27369;52.030;4.586;2022-09-25T01:10:39;6.78;;;3.42;;
41683;SDS011;27369;52.030;4.586;2022-09-25T01:13:06;9.25;;;3.33;;
41683;SDS011;27369;52.030;4.586;2022-09-25T01:15:42;5.03;;;3.28;;
41683;SDS011;27369;52.030;4.586;2022-09-25T01:26:30;8.60;;;4.10;;
41683;SDS011;27369;52.030;4.586;2022-09-25T01:40:10;5.22;;;3.20;;
41683;SDS011;27369;52.030;4.586;2022-09-25T01:42:47;8.82;;;3.63;;
41683;SDS011;27369;52.030;4.586;2022-09-25T01:45:22;7.55;;;3.90;;
41683;SDS011;27369;52.030;4.586;2022-09-25T01:47:53;6.55;;;3.83;;
41683;SDS011;27369;52.030;4.586;2022-09-25T01:50:33;6.65;;;3.35;;
41683;SDS011;27369;52.030;4.586;2022-09-25T01:53:06;6.55;;;3.47;;
41683;SDS011;27369;52.030;4.586;2022-09-25T01:55:38;8.30;;;4.07;;
41683;SDS011;27369;52.030;4.586;2022-09-25T01:58:10;6.75;;;3.40;;
41683;SDS011;27369;52.030;4.586;2022-09-25T02:00:38;7.30;;;3.40;;
41683;SDS011;27369;52.030;4.586;2022-09-25T02:03:13;6.43;;;3.35;;
41683;SDS011;27369;52.030;4.586;2022-09-25T02:05:51;9.45;;;3.70;;
41683;SDS011;27369;52.030;4.586;2022-09-25T02:08:22;7.35;;;3.80;;
41683;SDS011;27369;52.030;4.586;2022-09-25T02:11:09;8.32;;;4.00;;
41683;SDS011;27369;52.030;4.586;2022-09-25T02:13:40;7.40;;;4.18;;
41683;SDS011;27369;52.030;4.586;2022-09-25T02:16:13;7.20;;;3.92;;
41683;SDS011;27369;52.030;4.586;2022-09-25T02:18:42;7.75;;;3.78;;
41683;SDS011;27369;52.030;4.586;2022-09-25T02:21:31;7.65;;;4.07;;
41683;SDS011;27369;52.030;4.586;2022-09-25T02:26:45;8.82;;;4.07;;
41683;SDS011;27369;52.030;4.586;2022-09-25T02:29:12;10.30;;;3.78;;
41683;SDS011;27369;52.030;4.586;2022-09-25T02:31:41;10.75;;;4.10;;
41683;SDS011;27369;52.030;4.586;2022-09-25T02:34:10;13.23;;;4.13;;
41683;SDS011;27369;52.030;4.586;2022-09-25T02:36:36;11.07;;;3.67;;
41683;SDS011;27369;52.030;4.586;2022-09-25T02:39:02;13.13;;;4.38;;
41683;SDS011;27369;52.030;4.586;2022-09-25T02:49:54;11.00;;;3.90;;
41683;SDS011;27369;52.030;4.586;2022-09-25T02:52:27;6.03;;;3.17;;
41683;SDS011;27369;52.030;4.586;2022-09-25T02:55:44;8.75;;;4.18;;
41683;SDS011;27369;52.030;4.586;2022-09-25T02:58:25;10.27;;;4.00;;
41683;SDS011;27369;52.030;4.586;2022-09-25T03:00:52;8.80;;;4.00;;
41683;SDS011;27369;52.030;4.586;2022-09-25T03:03:20;9.65;;;4.38;;
41683;SDS011;27369;52.030;4.586;2022-09-25T03:05:48;11.02;;;4.50;;
41683;SDS011;27369;52.030;4.586;2022-09-25T03:08:16;8.48;;;3.70;;
41683;SDS011;27369;52.030;4.586;2022-09-25T03:11:03;7.78;;;3.67;;
41683;SDS011;27369;52.030;4.586;2022-09-25T03:13:29;10.48;;;3.95;;
41683;SDS011;27369;52.030;4.586;2022-09-25T03:15:59;6.32;;;3.03;;
41683;SDS011;27369;52.030;4.586;2022-09-25T03:18:31;8.30;;;3.65;;
41683;SDS011;27369;52.030;4.586;2022-09-25T03:20:57;5.38;;;2.95;;
41683;SDS011;27369;52.030;4.586;2022-09-25T03:23:22;8.38;;;4.10;;
41683;SDS011;27369;52.030;4.586;2022-09-25T03:25:48;6.38;;;2.88;;
41683;SDS011;27369;52.030;4.586;2022-09-25T03:28:13;3.65;;;2.25;;
41683;SDS011;27369;52.030;4.586;2022-09-25T03:30:39;7.63;;;2.30;;
41683;SDS011;27369;52.030;4.586;2022-09-25T03:33:06;6.22;;;2.58;;
41683;SDS011;27369;52.030;4.586;2022-09-25T03:35:34;12.95;;;2.40;;
41683;SDS011;27369;52.030;4.586;2022-09-25T03:38:00;5.07;;;2.10;;
41683;SDS011;27369;52.030;4.586;2022-09-25T03:40:25;5.30;;;2.50;;
41683;SDS011;27369;52.030;4.586;2022-09-25T03:42:51;8.25;;;2.38;;
41683;SDS011;27369;52.030;4.586;2022-09-25T03:45:16;6.13;;;2.13;;
41683;SDS011;27369;52.030;4.586;2022-09-25T03:47:42;7.10;;;2.20;;
41683;SDS011;27369;52.030;4.586;2022-09-25T03:50:07;3.20;;;1.75;;
41683;SDS011;27369;52.030;4.586;2022-09-25T03:52:33;7.40;;;1.88;;
41683;SDS011;27369;52.030;4.586;2022-09-25T03:54:59;5.70;;;2.08;;
41683;SDS011;27369;52.030;4.586;2022-09-25T03:57:24;9.25;;;1.58;;
41683;SDS011;27369;52.030;4.586;2022-09-25T03:59:50;6.63;;;2.00;;
41683;SDS011;27369;52.030;4.586;2022-09-25T04:02:16;7.22;;;2.00;;
41683;SDS011;27369;52.030;4.586;2022-09-25T04:04:41;5.25;;;1.70;;
41683;SDS011;27369;52.030;4.586;2022-09-25T04:07:09;5.55;;;2.20;;
41683;SDS011;27369;52.030;4.586;2022-09-25T04:09:35;6.00;;;1.95;;
41683;SDS011;27369;52.030;4.586;2022-09-25T04:12:01;6.57;;;1.92;;
41683;SDS011;27369;52.030;4.586;2022-09-25T04:14:26;8.55;;;1.88;;
41683;SDS011;27369;52.030;4.586;2022-09-25T04:16:52;6.75;;;1.88;;
41683;SDS011;27369;52.030;4.586;2022-09-25T04:19:17;3.17;;;1.85;;
41683;SDS011;27369;52.030;4.586;2022-09-25T04:21:43;4.78;;;1.70;;
41683;SDS011;27369;52.030;4.586;2022-09-25T04:24:08;5.70;;;1.90;;
41683;SDS011;27369;52.030;4.586;2022-09-25T04:26:53;4.55;;;2.10;;
41683;SDS011;27369;52.030;4.586;2022-09-25T04:29:18;6.13;;;1.90;;
41683;SDS011;27369;52.030;4.586;2022-09-25T04:31:47;6.55;;;1.80;;
41683;SDS011;27369;52.030;4.586;2022-09-25T04:34:32;7.45;;;1.85;;
41683;SDS011;27369;52.030;4.586;2022-09-25T04:36:59;5.78;;;1.80;;
41683;SDS011;27369;52.030;4.586;2022-09-25T04:39:25;11.30;;;2.23;;
41683;SDS011;27369;52.030;4.586;2022-09-25T04:41:50;10.27;;;3.33;;
41683;SDS011;27369;52.030;4.586;2022-09-25T04:44:16;8.38;;;2.92;;
41683;SDS011;27369;52.030;4.586;2022-09-25T04:46:41;6.97;;;2.28;;
41683;SDS011;27369;52.030;4.586;2022-09-25T04:49:07;4.22;;;2.42;;
41683;SDS011;27369;52.030;4.586;2022-09-25T04:51:32;7.20;;;2.42;;
41683;SDS011;27369;52.030;4.586;2022-09-25T04:53:57;5.50;;;1.98;;
41683;SDS011;27369;52.030;4.586;2022-09-25T04:56:23;7.38;;;2.20;;
41683;SDS011;27369;52.030;4.586;2022-09-25T04:58:50;4.93;;;2.20;;
41683;SDS011;27369;52.030;4.586;2022-09-25T05:01:17;4.82;;;2.03;;
41683;SDS011;27369;52.030;4.586;2022-09-25T05:03:46;4.40;;;1.73;;
41683;SDS011;27369;52.030;4.586;2022-09-25T05:06:12;5.90;;;2.10;;
41683;SDS011;27369;52.030;4.586;2022-09-25T05:08:37;4.93;;;1.83;;
41683;SDS011;27369;52.030;4.586;2022-09-25T05:11:03;5.10;;;2.22;;
41683;SDS011;27369;52.030;4.586;2022-09-25T05:13:28;3.70;;;2.10;;
41683;SDS011;27369;52.030;4.586;2022-09-25T05:15:54;4.40;;;2.33;;
41683;SDS011;27369;52.030;4.586;2022-09-25T05:18:20;4.07;;;1.75;;
41683;SDS011;27369;52.030;4.586;2022-09-25T05:20:48;4.70;;;1.98;;
41683;SDS011;27369;52.030;4.586;2022-09-25T05:23:13;5.68;;;2.40;;
41683;SDS011;27369;52.030;4.586;2022-09-25T05:28:05;6.67;;;2.37;;
41683;SDS011;27369;52.030;4.586;2022-09-25T05:30:31;9.27;;;2.47;;
41683;SDS011;27369;52.030;4.586;2022-09-25T05:32:58;6.82;;;2.47;;
41683;SDS011;27369;52.030;4.586;2022-09-25T05:35:24;7.82;;;2.58;;
41683;SDS011;27369;52.030;4.586;2022-09-25T05:37:51;7.10;;;2.50;;
41683;SDS011;27369;52.030;4.586;2022-09-25T05:40:17;5.30;;;2.28;;
41683;SDS011;27369;52.030;4.586;2022-09-25T05:42:45;4.75;;;2.42;;
41683;SDS011;27369;52.030;4.586;2022-09-25T05:45:15;7.82;;;2.22;;
41683;SDS011;27369;52.030;4.586;2022-09-25T05:47:41;7.13;;;2.10;;
41683;SDS011;27369;52.030;4.586;2022-09-25T05:50:08;4.40;;;1.98;;
41683;SDS011;27369;52.030;4.586;2022-09-25T05:52:35;6.13;;;2.20;;
41683;SDS011;27369;52.030;4.586;2022-09-25T05:55:02;3.53;;;2.00;;
41683;SDS011;27369;52.030;4.586;2022-09-25T05:57:30;9.88;;;3.65;;
41683;SDS011;27369;52.030;4.586;2022-09-25T05:59:57;6.30;;;2.42;;
41683;SDS011;27369;52.030;4.586;2022-09-25T06:02:23;8.07;;;2.55;;
41683;SDS011;27369;52.030;4.586;2022-09-25T06:04:49;5.95;;;2.40;;
41683;SDS011;27369;52.030;4.586;2022-09-25T06:07:14;4.85;;;2.10;;
41683;SDS011;27369;52.030;4.586;2022-09-25T06:09:40;3.67;;;2.25;;
41683;SDS011;27369;52.030;4.586;2022-09-25T06:12:05;5.38;;;2.30;;
41683;SDS011;27369;52.030;4.586;2022-09-25T06:14:31;5.32;;;2.08;;
41683;SDS011;27369;52.030;4.586;2022-09-25T06:16:59;4.00;;;1.90;;
41683;SDS011;27369;52.030;4.586;2022-09-25T06:19:25;10.20;;;2.38;;
41683;SDS011;27369;52.030;4.586;2022-09-25T06:21:53;4.13;;;1.73;;
41683;SDS011;27369;52.030;4.586;2022-09-25T06:24:18;4.35;;;1.70;;
41683;SDS011;27369;52.030;4.586;2022-09-25T06:26:44;7.30;;;1.65;;
41683;SDS011;27369;52.030;4.586;2022-09-25T06:29:10;10.00;;;1.75;;
41683;SDS011;27369;52.030;4.586;2022-09-25T06:31:35;8.00;;;1.67;;
41683;SDS011;27369;52.030;4.586;2022-09-25T06:34:03;5.65;;;2.30;;
41683;SDS011;27369;52.030;4.586;2022-09-25T06:36:29;4.90;;;1.60;;
41683;SDS011;27369;52.030;4.586;2022-09-25T06:38:55;7.68;;;1.95;;
41683;SDS011;27369;52.030;4.586;2022-09-25T06:41:21;8.63;;;1.88;;
41683;SDS011;27369;52.030;4.586;2022-09-25T06:46:13;5.57;;;1.70;;
41683;SDS011;27369;52.030;4.586;2022-09-25T06:48:38;6.68;;;1.75;;
41683;SDS011;27369;52.030;4.586;2022-09-25T06:51:04;3.67;;;1.88;;
41683;SDS011;27369;52.030;4.586;2022-09-25T06:53:32;6.28;;;1.80;;
41683;SDS011;27369;52.030;4.586;2022-09-25T06:55:58;5.18;;;1.83;;
41683;SDS011;27369;52.030;4.586;2022-09-25T06:58:24;6.50;;;1.60;;
41683;SDS011;27369;52.030;4.586;2022-09-25T07:00:51;8.45;;;1.90;;
41683;SDS011;27369;52.030;4.586;2022-09-25T07:03:18;6.00;;;1.70;;
41683;SDS011;27369;52.030;4.586;2022-09-25T07:06:03;6.47;;;1.70;;
41683;SDS011;27369;52.030;4.586;2022-09-25T07:08:30;5.38;;;2.35;;
41683;SDS011;27369;52.030;4.586;2022-09-25T07:10:56;5.18;;;1.58;;
41683;SDS011;27369;52.030;4.586;2022-09-25T07:13:24;5.47;;;1.75;;
41683;SDS011;27369;52.030;4.586;2022-09-25T07:15:58;5.50;;;1.60;;
41683;SDS011;27369;52.030;4.586;2022-09-25T07:18:28;5.57;;;2.38;;
41683;SDS011;27369;52.030;4.586;2022-09-25T07:21:01;7.50;;;2.20;;
41683;SDS011;27369;52.030;4.586;2022-09-25T07:23:28;6.80;;;2.00;;
41683;SDS011;27369;52.030;4.586;2022-09-25T07:25:55;4.50;;;1.40;;
41683;SDS011;27369;52.030;4.586;2022-09-25T07:28:27;8.82;;;2.60;;
41683;SDS011;27369;52.030;4.586;2022-09-25T07:30:53;5.90;;;1.98;;
41683;SDS011;27369;52.030;4.586;2022-09-25T07:33:19;6.10;;;1.60;;
41683;SDS011;27369;52.030;4.586;2022-09-25T07:35:49;4.28;;;1.17;;
41683;SDS011;27369;52.030;4.586;2022-09-25T07:38:16;4.93;;;1.40;;
41683;SDS011;27369;52.030;4.586;2022-09-25T07:43:07;7.10;;;1.43;;
41683;SDS011;27369;52.030;4.586;2022-09-25T07:45:33;14.43;;;1.70;;
41683;SDS011;27369;52.030;4.586;2022-09-25T07:47:58;5.47;;;1.00;;
41683;SDS011;27369;52.030;4.586;2022-09-25T07:50:28;5.00;;;1.20;;
41683;SDS011;27369;52.030;4.586;2022-09-25T07:52:55;5.50;;;0.90;;
41683;SDS011;27369;52.030;4.586;2022-09-25T07:55:21;7.50;;;1.20;;
41683;SDS011;27369;52.030;4.586;2022-09-25T08:00:14;3.60;;;1.05;;
41683;SDS011;27369;52.030;4.586;2022-09-25T08:02:40;3.92;;;1.00;;
41683;SDS011;27369;52.030;4.586;2022-09-25T08:05:05;7.68;;;1.40;;
41683;SDS011;27369;52.030;4.586;2022-09-25T08:07:31;5.22;;;1.00;;
41683;SDS011;27369;52.030;4.586;2022-09-25T08:09:57;6.70;;;1.13;;
41683;SDS011;27369;52.030;4.586;2022-09-25T08:12:22;5.60;;;1.10;;
41683;SDS011;27369;52.030;4.586;2022-09-25T08:14:49;5.28;;;0.95;;
41683;SDS011;27369;52.030;4.586;2022-09-25T08:17:15;4.07;;;0.80;;
41683;SDS011;27369;52.030;4.586;2022-09-25T08:19:40;3.83;;;0.73;;
41683;SDS011;27369;52.030;4.586;2022-09-25T08:22:06;5.97;;;1.35;;
41683;SDS011;27369;52.030;4.586;2022-09-25T08:24:31;9.65;;;0.85;;
41683;SDS011;27369;52.030;4.586;2022-09-25T08:26:57;2.78;;;0.55;;
41683;SDS011;27369;52.030;4.586;2022-09-25T08:29:22;9.18;;;0.85;;
41683;SDS011;27369;52.030;4.586;2022-09-25T08:31:48;5.85;;;0.80;;
41683;SDS011;27369;52.030;4.586;2022-09-25T08:34:14;6.28;;;1.15;;
41683;SDS011;27369;52.030;4.586;2022-09-25T08:36:41;6.65;;;1.58;;
41683;SDS011;27369;52.030;4.586;2022-09-25T08:39:06;4.25;;;0.73;;
41683;SDS011;27369;52.030;4.586;2022-09-25T08:41:33;5.30;;;0.70;;
41683;SDS011;27369;52.030;4.586;2022-09-25T08:47:05;2.10;;;0.50;;
41683;SDS011;27369;52.030;4.586;2022-09-25T08:50:07;3.70;;;0.68;;
41683;SDS011;27369;52.030;4.586;2022-09-25T08:52:38;2.97;;;0.50;;
41683;SDS011;27369;52.030;4.586;2022-09-25T08:55:24;5.13;;;0.75;;
41683;SDS011;27369;52.030;4.586;2022-09-25T08:58:13;4.07;;;0.70;;
41683;SDS011;27369;52.030;4.586;2022-09-25T09:01:02;3.38;;;0.55;;
41683;SDS011;27369;52.030;4.586;2022-09-25T09:03:30;3.10;;;0.70;;
41683;SDS011;27369;52.030;4.586;2022-09-25T09:06:07;4.63;;;0.70;;
41683;SDS011;27369;52.030;4.586;2022-09-25T09:08:39;4.90;;;1.52;;
41683;SDS011;27369;52.030;4.586;2022-09-25T09:11:25;4.68;;;0.98;;
41683;SDS011;27369;52.030;4.586;2022-09-25T09:13:59;2.60;;;0.60;;
41683;SDS011;27369;52.030;4.586;2022-09-25T09:16:40;7.85;;;2.95;;
41683;SDS011;27369;52.030;4.586;2022-09-25T09:19:09;4.22;;;0.68;;
41683;SDS011;27369;52.030;4.586;2022-09-25T09:24:17;4.93;;;1.20;;
41683;SDS011;27369;52.030;4.586;2022-09-25T09:37:52;4.57;;;0.88;;
41683;SDS011;27369;52.030;4.586;2022-09-25T09:45:43;1.90;;;0.35;;
41683;SDS011;27369;52.030;4.586;2022-09-25T09:48:28;3.60;;;0.82;;
41683;SDS011;27369;52.030;4.586;2022-09-25T09:51:20;4.70;;;1.20;;
41683;SDS011;27369;52.030;4.586;2022-09-25T09:54:18;5.95;;;0.75;;
41683;SDS011;27369;52.030;4.586;2022-09-25T09:56:49;4.60;;;1.10;;
41683;SDS011;27369;52.030;4.586;2022-09-25T09:59:20;4.13;;;0.80;;
41683;SDS011;27369;52.030;4.586;2022-09-25T10:02:00;3.15;;;0.43;;
41683;SDS011;27369;52.030;4.586;2022-09-25T10:04:40;2.65;;;0.55;;
41683;SDS011;27369;52.030;4.586;2022-09-25T10:07:08;3.90;;;0.40;;
41683;SDS011;27369;52.030;4.586;2022-09-25T10:09:40;3.05;;;0.40;;
41683;SDS011;27369;52.030;4.586;2022-09-25T10:12:11;3.38;;;0.60;;
41683;SDS011;27369;52.030;4.586;2022-09-25T10:14:45;3.67;;;0.80;;
41683;SDS011;27369;52.030;4.586;2022-09-25T10:17:12;3.90;;;0.35;;
41683;SDS011;27369;52.030;4.586;2022-09-25T10:22:20;1.85;;;0.40;;
41683;SDS011;27369;52.030;4.586;2022-09-25T10:24:54;2.60;;;0.93;;
41683;SDS011;27369;52.030;4.586;2022-09-25T10:27:35;3.92;;;0.40;;
41683;SDS011;27369;52.030;4.586;2022-09-25T10:32:32;2.58;;;0.57;;
41683;SDS011;27369;52.030;4.586;2022-09-25T10:34:59;1.95;;;0.50;;
41683;SDS011;27369;52.030;4.586;2022-09-25T10:37:26;3.65;;;0.60;;
41683;SDS011;27369;52.030;4.586;2022-09-25T10:40:22;4.00;;;0.85;;
41683;SDS011;27369;52.030;4.586;2022-09-25T10:43:02;4.22;;;1.02;;
41683;SDS011;27369;52.030;4.586;2022-09-25T10:45:41;2.22;;;0.50;;
41683;SDS011;27369;52.030;4.586;2022-09-25T10:48:26;4.07;;;0.55;;
41683;SDS011;27369;52.030;4.586;2022-09-25T10:51:14;2.53;;;0.43;;
41683;SDS011;27369;52.030;4.586;2022-09-25T10:53:45;2.25;;;0.70;;
41683;SDS011;27369;52.030;4.586;2022-09-25T10:56:19;4.07;;;1.02;;
41683;SDS011;27369;52.030;4.586;2022-09-25T10:58:52;3.03;;;0.55;;
41683;SDS011;27369;52.030;4.586;2022-09-25T11:01:27;1.55;;;0.50;;
41683;SDS011;27369;52.030;4.586;2022-09-25T11:03:59;2.80;;;0.50;;
41683;SDS011;27369;52.030;4.586;2022-09-25T11:06:30;2.00;;;0.32;;
41683;SDS011;27369;52.030;4.586;2022-09-25T11:09:03;3.88;;;0.45;;
41683;SDS011;27369;52.030;4.586;2022-09-25T11:11:36;1.40;;;0.38;;
41683;SDS011;27369;52.030;4.586;2022-09-25T11:14:04;3.28;;;0.65;;
41683;SDS011;27369;52.030;4.586;2022-09-25T11:16:55;2.45;;;0.90;;
41683;SDS011;27369;52.030;4.586;2022-09-25T11:19:34;2.50;;;0.40;;
41683;SDS011;27369;52.030;4.586;2022-09-25T11:22:06;2.90;;;0.30;;
41683;SDS011;27369;52.030;4.586;2022-09-25T11:28:14;1.60;;;0.20;;
41683;SDS011;27369;52.030;4.586;2022-09-25T11:30:31;2.40;;;0.20;;
41683;SDS011;27369;52.030;4.586;2022-09-25T11:33:47;4.20;;;0.40;;
41683;SDS011;27369;52.030;4.586;2022-09-25T11:44:42;1.42;;;0.20;;
41683;SDS011;27369;52.030;4.586;2022-09-25T11:47:31;2.92;;;0.17;;
41683;SDS011;27369;52.030;4.586;2022-09-25T11:50:19;1.58;;;0.40;;
41683;SDS011;27369;52.030;4.586;2022-09-25T11:53:12;0.90;;;0.35;;
41683;SDS011;27369;52.030;4.586;2022-09-25T11:58:44;2.03;;;0.45;;
41683;SDS011;27369;52.030;4.586;2022-09-25T12:01:31;0.68;;;0.20;;
41683;SDS011;27369;52.030;4.586;2022-09-25T12:09:36;2.60;;;0.17;;
41683;SDS011;27369;52.030;4.586;2022-09-25T12:12:08;1.65;;;0.20;;
41683;SDS011;27369;52.030;4.586;2022-09-25T12:20:44;1.85;;;0.20;;
41683;SDS011;27369;52.030;4.586;2022-09-25T12:28:55;1.10;;;0.20;;
41683;SDS011;27369;52.030;4.586;2022-09-25T12:34:25;0.80;;;0.20;;
41683;SDS011;27369;52.030;4.586;2022-09-25T12:37:02;1.25;;;0.30;;
41683;SDS011;27369;52.030;4.586;2022-09-25T12:39:46;0.82;;;0.10;;
41683;SDS011;27369;52.030;4.586;2022-09-25T12:42:20;0.88;;;0.20;;
41683;SDS011;27369;52.030;4.586;2022-09-25T12:44:52;1.90;;;0.28;;
41683;SDS011;27369;52.030;4.586;2022-09-25T12:50:02;2.50;;;0.20;;
41683;SDS011;27369;52.030;4.586;2022-09-25T12:52:37;2.42;;;0.20;;
41683;SDS011;27369;52.030;4.586;2022-09-25T12:55:12;2.78;;;0.30;;
41683;SDS011;27369;52.030;4.586;2022-09-25T12:57:47;3.55;;;0.40;;
41683;SDS011;27369;52.030;4.586;2022-09-25T13:00:19;2.97;;;1.08;;
41683;SDS011;27369;52.030;4.586;2022-09-25T13:02:52;1.80;;;0.60;;
41683;SDS011;27369;52.030;4.586;2022-09-25T13:10:38;1.95;;;0.47;;
41683;SDS011;27369;52.030;4.586;2022-09-25T13:13:15;3.40;;;0.52;;
41683;SDS011;27369;52.030;4.586;2022-09-25T13:15:47;2.22;;;0.30;;
41683;SDS011;27369;52.030;4.586;2022-09-25T13:18:17;1.70;;;0.50;;
41683;SDS011;27369;52.030;4.586;2022-09-25T13:20:55;0.73;;;0.22;;
41683;SDS011;27369;52.030;4.586;2022-09-25T13:23:25;3.67;;;0.40;;
41683;SDS011;27369;52.030;4.586;2022-09-25T13:26:01;1.98;;;0.17;;
41683;SDS011;27369;52.030;4.586;2022-09-25T13:28:39;1.80;;;0.10;;
41683;SDS011;27369;52.030;4.586;2022-09-25T13:31:20;3.33;;;0.30;;
41683;SDS011;27369;52.030;4.586;2022-09-25T13:38:54;1.02;;;0.17;;
41683;SDS011;27369;52.030;4.586;2022-09-25T13:41:49;4.50;;;0.65;;
41683;SDS011;27369;52.030;4.586;2022-09-25T13:53:11;1.30;;;0.30;;
41683;SDS011;27369;52.030;4.586;2022-09-25T13:56:27;1.98;;;0.35;;
41683;SDS011;27369;52.030;4.586;2022-09-25T13:58:27;0.90;;;0.30;;
41683;SDS011;27369;52.030;4.586;2022-09-25T14:00:58;0.93;;;0.20;;
41683;SDS011;27369;52.030;4.586;2022-09-25T14:05:58;1.98;;;0.20;;
41683;SDS011;27369;52.030;4.586;2022-09-25T14:08:26;1.40;;;0.20;;
41683;SDS011;27369;52.030;4.586;2022-09-25T14:10:55;2.20;;;0.30;;
41683;SDS011;27369;52.030;4.586;2022-09-25T14:13:24;1.15;;;0.10;;
41683;SDS011;27369;52.030;4.586;2022-09-25T14:15:52;0.82;;;0.20;;
41683;SDS011;27369;52.030;4.586;2022-09-25T14:20:49;1.20;;;0.13;;
41683;SDS011;27369;52.030;4.586;2022-09-25T14:23:24;0.93;;;0.20;;
41683;SDS011;27369;52.030;4.586;2022-09-25T14:25:56;1.60;;;0.10;;
41683;SDS011;27369;52.030;4.586;2022-09-25T14:28:30;1.35;;;0.20;;
41683;SDS011;27369;52.030;4.586;2022-09-25T14:47:58;2.10;;;0.20;;
41683;SDS011;27369;52.030;4.586;2022-09-25T14:50:30;2.72;;;0.30;;
41683;SDS011;27369;52.030;4.586;2022-09-25T14:53:03;1.80;;;0.35;;
41683;SDS011;27369;52.030;4.586;2022-09-25T14:55:36;2.90;;;0.30;;
41683;SDS011;27369;52.030;4.586;2022-09-25T14:58:08;2.78;;;0.30;;
41683;SDS011;27369;52.030;4.586;2022-09-25T15:00:44;0.70;;;0.13;;
41683;SDS011;27369;52.030;4.586;2022-09-25T15:03:12;1.67;;;0.30;;
41683;SDS011;27369;52.030;4.586;2022-09-25T15:05:44;2.58;;;0.35;;
41683;SDS011;27369;52.030;4.586;2022-09-25T15:08:29;1.98;;;0.20;;
41683;SDS011;27369;52.030;4.586;2022-09-25T15:11:01;1.85;;;0.30;;
41683;SDS011;27369;52.030;4.586;2022-09-25T15:13:32;0.82;;;0.17;;
41683;SDS011;27369;52.030;4.586;2022-09-25T15:15:58;0.65;;;0.38;;
41683;SDS011;27369;52.030;4.586;2022-09-25T15:18:44;2.70;;;0.30;;
41683;SDS011;27369;52.030;4.586;2022-09-25T15:23:54;1.00;;;0.20;;
41683;SDS011;27369;52.030;4.586;2022-09-25T15:26:23;1.40;;;0.30;;
41683;SDS011;27369;52.030;4.586;2022-09-25T15:28:48;4.68;;;1.42;;
41683;SDS011;27369;52.030;4.586;2022-09-25T15:31:15;1.48;;;0.30;;
41683;SDS011;27369;52.030;4.586;2022-09-25T15:33:41;1.25;;;0.30;;
41683;SDS011;27369;52.030;4.586;2022-09-25T15:38:38;2.72;;;0.40;;
41683;SDS011;27369;52.030;4.586;2022-09-25T15:41:08;1.17;;;0.20;;
41683;SDS011;27369;52.030;4.586;2022-09-25T15:43:38;1.05;;;0.20;;
41683;SDS011;27369;52.030;4.586;2022-09-25T15:48:33;18.63;;;11.35;;
41683;SDS011;27369;52.030;4.586;2022-09-25T15:53:39;4.70;;;1.25;;
41683;SDS011;27369;52.030;4.586;2022-09-25T15:58:46;1.13;;;0.40;;
41683;SDS011;27369;52.030;4.586;2022-09-25T16:01:21;2.70;;;0.20;;
41683;SDS011;27369;52.030;4.586;2022-09-25T16:04:07;1.60;;;0.40;;
41683;SDS011;27369;52.030;4.586;2022-09-25T16:06:55;2.75;;;0.40;;
41683;SDS011;27369;52.030;4.586;2022-09-25T16:11:51;1.55;;;0.30;;
41683;SDS011;27369;52.030;4.586;2022-09-25T16:14:18;3.72;;;0.63;;
41683;SDS011;27369;52.030;4.586;2022-09-25T16:16:49;1.30;;;0.40;;
41683;SDS011;27369;52.030;4.586;2022-09-25T16:21:49;0.82;;;0.20;;
41683;SDS011;27369;52.030;4.586;2022-09-25T16:24:19;1.17;;;0.38;;
41683;SDS011;27369;52.030;4.586;2022-09-25T16:26:51;2.90;;;0.43;;
41683;SDS011;27369;52.030;4.586;2022-09-25T16:29:21;1.45;;;0.20;;
41683;SDS011;27369;52.030;4.586;2022-09-25T16:31:51;2.45;;;0.30;;
41683;SDS011;27369;52.030;4.586;2022-09-25T16:37:01;3.38;;;0.35;;
41683;SDS011;27369;52.030;4.586;2022-09-25T16:42:00;2.58;;;0.30;;
41683;SDS011;27369;52.030;4.586;2022-09-25T16:44:49;7.65;;;0.52;;
41683;SDS011;27369;52.030;4.586;2022-09-25T16:47:16;2.47;;;0.40;;
41683;SDS011;27369;52.030;4.586;2022-09-25T16:49:44;1.77;;;0.43;;
41683;SDS011;27369;52.030;4.586;2022-09-25T16:54:49;2.58;;;0.70;;
41683;SDS011;27369;52.030;4.586;2022-09-25T16:57:22;1.77;;;0.40;;
41683;SDS011;27369;52.030;4.586;2022-09-25T16:59:49;1.98;;;0.50;;
41683;SDS011;27369;52.030;4.586;2022-09-25T17:02:21;1.48;;;0.40;;
41683;SDS011;27369;52.030;4.586;2022-09-25T17:04:56;3.00;;;0.40;;
41683;SDS011;27369;52.030;4.586;2022-09-25T17:07:22;1.67;;;0.40;;
41683;SDS011;27369;52.030;4.586;2022-09-25T17:09:47;2.40;;;0.60;;
41683;SDS011;27369;52.030;4.586;2022-09-25T17:12:16;1.55;;;0.50;;
41683;SDS011;27369;52.030;4.586;2022-09-25T17:14:45;4.43;;;0.60;;
41683;SDS011;27369;52.030;4.586;2022-09-25T17:17:11;1.45;;;0.40;;
41683;SDS011;27369;52.030;4.586;2022-09-25T17:19:41;2.58;;;0.50;;
41683;SDS011;27369;52.030;4.586;2022-09-25T17:22:07;2.95;;;0.60;;
41683;SDS011;27369;52.030;4.586;2022-09-25T17:24:33;2.80;;;0.43;;
41683;SDS011;27369;52.030;4.586;2022-09-25T17:26:59;2.92;;;0.50;;
41683;SDS011;27369;52.030;4.586;2022-09-25T17:29:25;2.85;;;0.55;;
41683;SDS011;27369;52.030;4.586;2022-09-25T17:31:52;3.17;;;0.60;;
41683;SDS011;27369;52.030;4.586;2022-09-25T17:34:19;4.32;;;0.80;;
41683;SDS011;27369;52.030;4.586;2022-09-25T17:36:52;1.63;;;0.50;;
41683;SDS011;27369;52.030;4.586;2022-09-25T17:39:17;1.15;;;0.45;;
41683;SDS011;27369;52.030;4.586;2022-09-25T17:41:43;3.45;;;0.80;;
41683;SDS011;27369;52.030;4.586;2022-09-25T17:44:13;2.20;;;0.50;;
41683;SDS011;27369;52.030;4.586;2022-09-25T17:46:50;2.92;;;0.70;;
41683;SDS011;27369;52.030;4.586;2022-09-25T17:49:15;2.00;;;0.70;;
41683;SDS011;27369;52.030;4.586;2022-09-25T17:51:41;3.97;;;0.80;;
41683;SDS011;27369;52.030;4.586;2022-09-25T17:54:07;4.88;;;0.60;;
41683;SDS011;27369;52.030;4.586;2022-09-25T17:56:33;3.65;;;0.57;;
41683;SDS011;27369;52.030;4.586;2022-09-25T17:58:59;2.92;;;0.60;;
41683;SDS011;27369;52.030;4.586;2022-09-25T18:01:27;3.33;;;0.50;;
41683;SDS011;27369;52.030;4.586;2022-09-25T18:03:55;3.15;;;0.60;;